Time;durP1;ratioP1;P1;durP2;ratioP2;P2;SDS_P1;SDS_P2;PMS_P1;PMS_P2;Temp;Humidity;BMP_temperature;BMP_pressure;BME280_temperature;BME280_humidity;BME280_pressure;Samples;Min_cycle;Max_cycle;Signal;HPM_P1;HPM_P2
2024/01/17 00:00:00;;;;;;;30.80;17.97;;;;;;;-3.65;69.79;93340.16;523898;28;818;-68
2024/01/17 00:00:16;;;;;;;27.58;17.20;;;;;;;-3.69;69.66;93345.00;524012;28;869;-68
2024/01/17 00:00:32;;;;;;;28.60;17.00;;;;;;;-3.75;70.40;93336.81;524095;28;810;-68
2024/01/17 00:00:51;;;;;;;30.27;17.73;;;;;;;-3.83;69.89;93339.09;523961;28;767;-68
2024/01/17 00:01:06;;;;;;;32.05;19.05;;;;;;;-3.90;70.19;93344.09;524014;28;912;-68
2024/01/17 00:01:21;;;;;;;34.55;19.80;;;;;;;-3.96;70.36;93345.91;523876;28;798;-68
2024/01/17 00:01:37;;;;;;;31.77;18.70;;;;;;;-3.99;70.68;93344.13;523961;28;830;-68
2024/01/17 00:01:54;;;;;;;28.75;17.67;;;;;;;-4.06;71.18;93339.84;524033;28;783;-68
2024/01/17 00:02:09;;;;;;;28.13;17.98;;;;;;;-4.16;71.35;93341.06;524027;28;850;-68
2024/01/17 00:02:24;;;;;;;29.80;18.85;;;;;;;-4.20;71.94;93348.56;523952;28;896;-68
2024/01/17 00:02:40;;;;;;;31.33;19.57;;;;;;;-4.30;72.32;93338.31;523968;28;802;-68
2024/01/17 00:02:55;;;;;;;32.55;20.77;;;;;;;-4.34;72.08;93341.16;524066;28;865;-68
2024/01/17 00:03:11;;;;;;;31.60;20.17;;;;;;;-4.37;72.02;93335.94;523930;28;901;-68
2024/01/17 00:03:27;;;;;;;27.52;17.63;;;;;;;-4.37;72.06;93335.94;524102;28;944;-68
2024/01/17 00:03:42;;;;;;;27.48;16.70;;;;;;;-4.46;72.24;93331.31;524721;28;1092;-68
2024/01/17 00:03:57;;;;;;;25.10;14.97;;;;;;;-4.39;72.27;93336.38;526060;28;1000;-68
2024/01/17 00:04:14;;;;;;;21.57;13.63;;;;;;;-4.39;72.84;93341.03;526141;28;830;-68
2024/01/17 00:04:30;;;;;;;18.95;13.13;;;;;;;-4.37;72.41;93341.31;525645;28;1226;-68
2024/01/17 00:04:46;;;;;;;18.73;12.82;;;;;;;-4.36;72.70;93332.03;523984;28;1130;-68
2024/01/17 00:05:03;;;;;;;19.65;12.80;;;;;;;-4.32;72.42;93341.47;524120;28;888;-68
2024/01/17 00:05:18;;;;;;;21.27;12.85;;;;;;;-4.27;72.18;93342.78;523931;28;842;-68
2024/01/17 00:05:34;;;;;;;21.57;13.20;;;;;;;-4.23;72.66;93336.03;523948;28;778;-68
2024/01/17 00:05:49;;;;;;;20.92;12.90;;;;;;;-4.19;72.86;93333.16;524010;28;841;-68
2024/01/17 00:06:05;;;;;;;20.87;13.13;;;;;;;-4.16;72.04;93341.06;523817;28;1314;-68
2024/01/17 00:06:20;;;;;;;18.60;12.85;;;;;;;-4.11;72.17;93337.00;524005;28;921;-68
2024/01/17 00:06:37;;;;;;;17.90;12.63;;;;;;;-4.08;72.57;93339.53;524007;28;794;-68
2024/01/17 00:06:57;;;;;;;19.20;12.70;;;;;;;-4.04;72.25;93331.28;523953;28;830;-68
2024/01/17 00:07:12;;;;;;;19.52;12.35;;;;;;;-4.02;72.16;93337.72;523911;28;952;-68
2024/01/17 00:07:27;;;;;;;18.67;12.73;;;;;;;-4.24;72.04;93296.78;523784;28;909;-69
2024/01/17 00:07:43;;;;;;;17.27;12.32;;;;;;;-3.96;72.04;93341.25;524000;28;798;-68
2024/01/17 00:07:58;;;;;;;17.87;11.47;;;;;;;-3.95;71.38;93331.22;523922;28;877;-68
2024/01/17 00:08:14;;;;;;;19.35;12.18;;;;;;;-3.93;71.41;93339.59;523957;28;798;-68
2024/01/17 00:08:29;;;;;;;18.40;12.53;;;;;;;-3.91;71.54;93327.16;523969;28;1120;-68
2024/01/17 00:08:45;;;;;;;19.90;12.57;;;;;;;-3.88;71.71;93326.22;524040;28;813;-68
2024/01/17 00:09:00;;;;;;;19.43;11.97;;;;;;;-3.86;71.49;93334.63;523978;28;865;-68
2024/01/17 00:09:16;;;;;;;19.67;12.60;;;;;;;-3.83;71.44;93335.63;523992;28;857;-68
2024/01/17 00:09:31;;;;;;;19.53;13.30;;;;;;;-3.81;71.70;93329.81;523975;28;838;-68
2024/01/17 00:09:50;;;;;;;18.80;13.13;;;;;;;-3.78;71.14;93324.22;523912;28;762;-68
2024/01/17 00:10:06;;;;;;;21.30;13.63;;;;;;;-3.75;71.55;93331.41;524061;28;853;-68
2024/01/17 00:10:22;;;;;;;21.25;13.65;;;;;;;-3.72;71.16;93332.41;523988;28;852;-68
2024/01/17 00:10:37;;;;;;;20.77;13.80;;;;;;;-3.71;71.58;93328.53;523960;28;813;-68
2024/01/17 00:10:52;;;;;;;19.23;13.50;;;;;;;-3.69;70.97;93337.66;524018;28;848;-68
2024/01/17 00:11:08;;;;;;;21.50;13.95;;;;;;;-3.67;71.03;93331.78;523906;28;955;-68
2024/01/17 00:11:23;;;;;;;20.57;13.47;;;;;;;-3.67;71.13;93326.41;524017;28;852;-68
2024/01/17 00:11:39;;;;;;;18.08;12.93;;;;;;;-3.65;70.80;93330.13;523960;28;769;-68
2024/01/17 00:11:54;;;;;;;18.83;12.83;;;;;;;-3.62;70.80;93331.16;524027;28;754;-68
2024/01/17 00:12:10;;;;;;;18.40;12.68;;;;;;;-3.64;71.07;93331.63;524006;28;781;-68
2024/01/17 00:12:25;;;;;;;19.60;13.07;;;;;;;-3.65;71.24;93335.53;523832;28;770;-68
2024/01/17 00:12:41;;;;;;;20.40;13.70;;;;;;;-3.66;70.93;93331.31;523998;28;916;-68
2024/01/17 00:12:56;;;;;;;18.53;13.60;;;;;;;-3.65;70.65;93332.06;523995;28;857;-68
2024/01/17 00:13:12;;;;;;;19.65;12.98;;;;;;;-3.66;71.17;93338.69;523991;28;817;-68
2024/01/17 00:13:27;;;;;;;19.87;12.40;;;;;;;-3.67;70.80;93342.59;523983;28;908;-68
2024/01/17 00:13:42;;;;;;;18.58;12.30;;;;;;;-3.67;70.88;93337.94;523929;28;785;-68
2024/01/17 00:13:58;;;;;;;18.30;12.47;;;;;;;-3.80;70.72;93317.78;523946;28;798;-68
2024/01/17 00:14:14;;;;;;;18.63;13.02;;;;;;;-3.69;70.75;93334.97;524033;28;834;-68
2024/01/17 00:14:29;;;;;;;19.57;13.13;;;;;;;-3.69;70.86;93337.66;523972;28;833;-68
2024/01/17 00:14:45;;;;;;;20.77;13.65;;;;;;;-3.68;70.52;93333.72;523951;28;922;-68
2024/01/17 00:15:00;;;;;;;20.93;14.23;;;;;;;-3.67;70.90;93342.59;523989;28;829;-68
2024/01/17 00:15:18;;;;;;;21.27;13.50;;;;;;;-3.66;71.15;93334.03;523938;28;865;-68
2024/01/17 00:15:33;;;;;;;20.83;12.90;;;;;;;-3.65;70.53;93334.78;523969;28;841;-68
2024/01/17 00:15:49;;;;;;;21.85;12.95;;;;;;;-3.63;71.18;93343.91;523973;28;861;-68
2024/01/17 00:16:05;;;;;;;24.55;14.07;;;;;;;-3.61;71.13;93333.38;523988;28;892;-68
2024/01/17 00:16:22;;;;;;;23.25;14.70;;;;;;;-3.59;70.39;93333.69;523931;28;837;-68
2024/01/17 00:16:38;;;;;;;23.38;15.15;;;;;;;-3.56;70.39;93334.72;523878;28;928;-68
2024/01/17 00:16:54;;;;;;;27.37;15.67;;;;;;;-3.53;70.47;93333.81;523982;28;845;-68
2024/01/17 00:17:10;;;;;;;29.67;15.65;;;;;;;-3.51;70.71;93331.38;523975;28;920;-68
2024/01/17 00:17:25;;;;;;;27.65;15.40;;;;;;;-3.49;70.81;93331.66;523929;28;786;-68
2024/01/17 00:17:41;;;;;;;23.30;14.20;;;;;;;-3.49;70.20;93335.13;523845;28;1979;-68
2024/01/17 00:17:56;;;;;;;20.85;14.10;;;;;;;-3.46;70.17;93330.72;523957;28;790;-68
2024/01/17 00:18:12;;;;;;;23.10;15.13;;;;;;;-3.45;70.05;93332.97;524013;28;777;-68
2024/01/17 00:18:27;;;;;;;24.23;14.43;;;;;;;-3.45;70.30;93334.94;523908;28;798;-68
2024/01/17 00:18:42;;;;;;;27.70;14.30;;;;;;;-3.45;69.64;93332.97;523942;28;773;-68
2024/01/17 00:18:58;;;;;;;29.13;15.00;;;;;;;-3.47;69.34;93330.00;523928;28;900;-68
2024/01/17 00:19:14;;;;;;;25.85;15.32;;;;;;;-3.47;69.42;93327.31;523988;28;845;-68
2024/01/17 00:19:31;;;;;;;23.90;15.07;;;;;;;-3.45;69.47;93332.22;523837;28;908;-68
2024/01/17 00:19:46;;;;;;;24.00;14.93;;;;;;;-3.44;69.33;93333.72;523835;28;902;-68
2024/01/17 00:20:02;;;;;;;26.07;16.00;;;;;;;-3.45;69.66;93332.97;524016;28;806;-68
2024/01/17 00:20:17;;;;;;;25.65;15.27;;;;;;;-3.43;70.00;93335.22;523933;28;754;-68
2024/01/17 00:20:33;;;;;;;23.33;14.47;;;;;;;-3.42;69.98;93334.75;523909;28;782;-68
2024/01/17 00:20:48;;;;;;;21.08;14.13;;;;;;;-3.40;69.87;93335.03;523801;28;1071;-68
2024/01/17 00:21:04;;;;;;;19.93;14.17;;;;;;;-3.40;69.61;93337.00;523986;28;781;-68
2024/01/17 00:21:19;;;;;;;22.23;15.00;;;;;;;-3.40;69.50;93326.19;523914;28;853;-68
2024/01/17 00:21:35;;;;;;;23.47;14.07;;;;;;;-3.39;69.92;93327.69;523920;28;841;-68
2024/01/17 00:21:51;;;;;;;21.40;12.88;;;;;;;-3.40;69.36;93335.03;523917;28;817;-68
2024/01/17 00:22:06;;;;;;;20.73;12.77;;;;;;;-3.53;69.61;93337.22;523912;28;861;-68
2024/01/17 00:22:21;;;;;;;20.13;12.10;;;;;;;-3.59;69.68;93339.06;523911;28;878;-68
2024/01/17 00:22:37;;;;;;;18.95;11.35;;;;;;;-3.59;70.14;93336.38;523836;28;817;-68
2024/01/17 00:22:54;;;;;;;18.23;11.57;;;;;;;-3.57;69.46;93333.22;523976;28;758;-68
2024/01/17 00:23:09;;;;;;;20.05;13.55;;;;;;;-3.55;69.84;93336.22;523945;28;904;-68
2024/01/17 00:23:25;;;;;;;21.27;15.00;;;;;;;-3.54;69.76;93335.75;523829;28;849;-68
2024/01/17 00:23:40;;;;;;;22.70;14.32;;;;;;;-3.56;69.91;93332.75;523958;28;778;-68
2024/01/17 00:23:55;;;;;;;21.23;13.30;;;;;;;-3.58;69.67;93331.72;524013;28;786;-69
2024/01/17 00:24:11;;;;;;;19.20;12.95;;;;;;;-3.57;69.57;93338.63;524012;28;793;-69
2024/01/17 00:24:27;;;;;;;17.60;12.10;;;;;;;-3.57;69.24;93331.25;523848;28;877;-68
2024/01/17 00:24:43;;;;;;;19.42;12.70;;;;;;;-3.57;69.27;93330.53;523926;28;1139;-68
2024/01/17 00:24:58;;;;;;;21.88;13.48;;;;;;;-3.57;70.03;93331.25;523879;28;959;-68
2024/01/17 00:25:14;;;;;;;20.17;12.27;;;;;;;-3.57;69.31;93331.25;523912;28;841;-68
2024/01/17 00:25:29;;;;;;;20.73;12.35;;;;;;;-3.56;69.64;93332.75;523943;28;845;-68
2024/01/17 00:25:45;;;;;;;20.33;12.10;;;;;;;-3.55;69.89;93333.53;523946;28;815;-68
2024/01/17 00:26:00;;;;;;;18.90;12.05;;;;;;;-3.55;69.89;93330.81;523910;28;789;-68
2024/01/17 00:26:16;;;;;;;19.20;12.53;;;;;;;-3.55;69.52;93328.84;523843;28;949;-68
2024/01/17 00:26:31;;;;;;;19.57;12.43;;;;;;;-3.56;69.78;93327.38;523974;28;898;-68
2024/01/17 00:26:47;;;;;;;20.25;11.80;;;;;;;-3.56;69.90;93332.00;523913;28;884;-68
2024/01/17 00:27:04;;;;;;;17.40;11.07;;;;;;;-3.60;70.21;93328.75;524004;28;849;-68
2024/01/17 00:27:24;;;;;;;14.70;10.07;;;;;;;-3.71;69.88;93331.97;523955;28;905;-68
2024/01/17 00:27:39;;;;;;;15.20;9.75;;;;;;;-3.78;69.77;93326.16;523749;28;916;-69
2024/01/17 00:27:54;;;;;;;14.88;9.70;;;;;;;-3.82;69.83;93329.06;523986;28;1120;-68
2024/01/17 00:28:10;;;;;;;14.00;10.10;;;;;;;-3.83;70.26;93334.91;523910;28;861;-68
2024/01/17 00:28:25;;;;;;;12.97;9.87;;;;;;;-3.83;70.17;93332.22;523985;28;798;-68
2024/01/17 00:28:41;;;;;;;14.40;9.75;;;;;;;-3.81;69.81;93335.19;523901;28;897;-68
2024/01/17 00:28:56;;;;;;;15.50;10.07;;;;;;;-3.79;69.87;93336.22;523902;28;881;-68
2024/01/17 00:29:12;;;;;;;14.48;9.98;;;;;;;-3.79;70.24;93330.84;523962;28;873;-68
2024/01/17 00:29:27;;;;;;;14.00;10.07;;;;;;;-3.78;70.58;93334.25;523942;28;822;-68
2024/01/17 00:29:42;;;;;;;13.45;9.77;;;;;;;-3.77;70.38;93339.22;523917;28;868;-68
2024/01/17 00:29:58;;;;;;;12.90;9.37;;;;;;;-3.75;69.99;93331.41;523919;28;895;-68
2024/01/17 00:30:14;;;;;;;14.30;9.70;;;;;;;-3.72;70.25;93338.56;523823;28;802;-69
2024/01/17 00:30:29;;;;;;;14.27;9.43;;;;;;;-3.68;70.03;93330.31;523710;28;806;-69
2024/01/17 00:30:45;;;;;;;12.47;8.90;;;;;;;-3.66;69.79;93333.28;523780;28;808;-69
2024/01/17 00:31:00;;;;;;;13.17;9.20;;;;;;;-3.64;69.70;93333.56;523759;28;778;-69
2024/01/17 00:31:16;;;;;;;15.20;9.68;;;;;;;-3.65;69.65;93329.38;523780;28;883;-69
2024/01/17 00:31:31;;;;;;;14.37;9.30;;;;;;;-3.65;69.83;93332.81;523745;28;846;-68
2024/01/17 00:31:46;;;;;;;12.35;9.02;;;;;;;-3.63;69.82;93332.34;523678;28;1035;-68
2024/01/17 00:32:02;;;;;;;12.47;9.27;;;;;;;-3.62;69.90;93334.63;523869;28;750;-68
2024/01/17 00:32:18;;;;;;;14.25;9.88;;;;;;;-3.63;69.44;93333.09;523921;28;806;-68
2024/01/17 00:32:34;;;;;;;15.60;10.13;;;;;;;-3.65;69.38;93337.47;523865;28;905;-68
2024/01/17 00:32:50;;;;;;;16.33;10.40;;;;;;;-3.70;68.98;93332.72;523807;28;782;-68
2024/01/17 00:33:05;;;;;;;17.70;11.43;;;;;;;-3.78;69.72;93336.97;523923;28;797;-68
2024/01/17 00:33:21;;;;;;;19.40;12.53;;;;;;;-3.87;69.72;93335.81;523887;28;924;-68
2024/01/17 00:33:37;;;;;;;20.35;13.88;;;;;;;-3.91;69.55;93332.56;523953;28;778;-68
2024/01/17 00:33:52;;;;;;;20.08;14.43;;;;;;;-3.91;69.58;93342.59;523909;28;862;-68
2024/01/17 00:34:08;;;;;;;21.83;14.47;;;;;;;-3.92;69.36;93341.84;523888;28;759;-68
2024/01/17 00:34:23;;;;;;;23.17;14.73;;;;;;;-3.92;69.40;93331.03;524019;28;845;-68
2024/01/17 00:34:38;;;;;;;24.00;15.33;;;;;;;-3.90;69.63;93344.81;523771;28;829;-68
2024/01/17 00:34:54;;;;;;;22.50;15.07;;;;;;;-3.87;70.13;93332.38;523990;28;758;-68
2024/01/17 00:35:09;;;;;;;22.95;15.10;;;;;;;-3.87;69.76;93335.06;523943;28;799;-68
2024/01/17 00:35:25;;;;;;;23.90;15.03;;;;;;;-3.90;69.58;93336.00;523885;28;762;-68
2024/01/17 00:35:40;;;;;;;22.08;14.35;;;;;;;-3.91;69.45;93331.81;523845;28;821;-68
2024/01/17 00:35:56;;;;;;;25.73;15.27;;;;;;;-3.94;70.03;93340.78;523873;28;774;-68
2024/01/17 00:36:11;;;;;;;29.95;17.77;;;;;;;-3.93;69.83;93342.31;523931;28;794;-68
2024/01/17 00:36:26;;;;;;;28.53;17.73;;;;;;;-3.92;70.15;93341.84;523921;28;810;-68
2024/01/17 00:36:42;;;;;;;27.35;17.10;;;;;;;-3.90;69.47;93338.69;523877;28;881;-68
2024/01/17 00:36:57;;;;;;;26.50;16.77;;;;;;;-3.88;69.97;93338.97;523954;28;984;-68
2024/01/17 00:37:13;;;;;;;28.15;17.45;;;;;;;-3.87;70.04;93352.00;523906;28;867;-68
2024/01/17 00:37:28;;;;;;;30.07;17.90;;;;;;;-3.87;70.00;93351.25;523682;28;1927;-68
2024/01/17 00:37:44;;;;;;;25.80;15.73;;;;;;;-3.88;69.70;93347.06;523858;28;873;-68
2024/01/17 00:38:00;;;;;;;23.65;15.05;;;;;;;-3.89;69.54;93348.25;523917;28;786;-69
2024/01/17 00:38:15;;;;;;;29.95;17.20;;;;;;;-3.91;70.04;93343.34;523915;28;877;-67
2024/01/17 00:38:31;;;;;;;30.85;17.40;;;;;;;-3.90;69.96;93344.09;523780;28;785;-69
2024/01/17 00:38:46;;;;;;;27.53;16.00;;;;;;;-3.90;69.37;93344.81;523860;28;797;-68
2024/01/17 00:39:03;;;;;;;27.13;15.50;;;;;;;-3.90;70.02;93347.50;523950;28;833;-68
2024/01/17 00:39:19;;;;;;;25.15;15.50;;;;;;;-3.87;69.87;93340.47;523915;28;853;-68
2024/01/17 00:39:34;;;;;;;26.27;16.57;;;;;;;-3.84;69.53;93344.94;523815;28;908;-68
2024/01/17 00:39:50;;;;;;;27.27;16.85;;;;;;;-3.81;69.32;93343.28;523884;28;833;-68
2024/01/17 00:40:06;;;;;;;27.75;16.40;;;;;;;-3.88;69.17;93341.69;523930;28;798;-68
2024/01/17 00:40:21;;;;;;;26.10;15.80;;;;;;;-3.93;69.41;93347.69;523850;28;862;-68
2024/01/17 00:40:37;;;;;;;25.45;15.25;;;;;;;-3.95;69.28;93350.09;523841;28;862;-69
2024/01/17 00:40:53;;;;;;;24.95;14.00;;;;;;;-3.99;69.95;93347.59;523939;28;971;-69
2024/01/17 00:41:08;;;;;;;18.27;11.70;;;;;;;-4.00;69.42;93340.69;523968;28;750;-69
2024/01/17 00:41:24;;;;;;;14.73;10.07;;;;;;;-4.01;69.74;93341.16;523911;28;864;-68
2024/01/17 00:41:40;;;;;;;13.57;8.93;;;;;;;-4.02;69.81;93339.66;523863;28;783;-68
2024/01/17 00:41:55;;;;;;;12.30;8.68;;;;;;;-4.01;69.46;93344.59;523916;28;929;-68
2024/01/17 00:42:11;;;;;;;12.35;8.88;;;;;;;-3.99;69.46;93344.13;523919;28;944;-68
2024/01/17 00:42:27;;;;;;;12.93;8.47;;;;;;;-3.97;69.90;93347.13;523860;28;848;-68
2024/01/17 00:42:43;;;;;;;13.07;8.45;;;;;;;-3.96;69.54;93349.34;523883;28;920;-68
2024/01/17 00:42:58;;;;;;;13.20;9.00;;;;;;;-3.94;69.96;93357.72;523800;28;845;-68
2024/01/17 00:43:14;;;;;;;13.35;9.15;;;;;;;-3.93;69.68;93355.78;523959;28;896;-68
2024/01/17 00:43:29;;;;;;;14.30;9.57;;;;;;;-3.91;69.86;93356.06;523851;28;754;-68
2024/01/17 00:43:45;;;;;;;15.55;10.18;;;;;;;-3.91;69.34;93353.38;523934;28;766;-68
2024/01/17 00:44:00;;;;;;;17.77;10.80;;;;;;;-3.90;69.95;93349.50;523878;28;865;-68
2024/01/17 00:44:18;;;;;;;16.52;11.07;;;;;;;-3.89;69.94;93349.03;523935;28;841;-68
2024/01/17 00:44:38;;;;;;;16.50;11.30;;;;;;;-3.92;69.53;93349.19;523842;28;1004;-68
2024/01/17 00:44:53;;;;;;;19.50;12.17;;;;;;;-4.03;70.63;93347.00;523980;28;829;-68
2024/01/17 00:45:10;;;;;;;17.37;11.50;;;;;;;-4.34;71.30;93316.16;523900;28;864;-68
2024/01/17 00:45:25;;;;;;;18.23;11.65;;;;;;;-4.20;71.04;93350.53;523914;28;879;-68
2024/01/17 00:45:41;;;;;;;21.40;12.73;;;;;;;-4.28;71.43;93352.06;523855;28;840;-69
2024/01/17 00:45:56;;;;;;;16.88;10.95;;;;;;;-4.28;71.85;93352.06;523911;28;861;-69
2024/01/17 00:46:12;;;;;;;15.17;10.90;;;;;;;-4.26;71.96;93346.97;523926;28;790;-69
2024/01/17 00:46:27;;;;;;;15.33;10.90;;;;;;;-4.24;71.88;93352.63;523910;28;905;-68
2024/01/17 00:46:42;;;;;;;14.90;10.90;;;;;;;-4.20;71.94;93353.25;523924;28;1059;-68
2024/01/17 00:46:58;;;;;;;18.60;12.60;;;;;;;-4.20;71.82;93351.28;523847;28;924;-68
2024/01/17 00:47:13;;;;;;;21.65;13.73;;;;;;;-4.19;72.12;93352.03;524005;28;814;-68
2024/01/17 00:47:30;;;;;;;18.97;12.97;;;;;;;-4.34;72.17;93332.34;523878;28;790;-68
2024/01/17 00:47:46;;;;;;;17.70;12.43;;;;;;;-4.19;72.34;93350.09;523935;28;890;-68
2024/01/17 00:48:03;;;;;;;21.63;13.77;;;;;;;-4.15;72.37;93347.22;523904;28;853;-68
2024/01/17 00:48:18;;;;;;;20.90;13.85;;;;;;;-4.11;72.57;93347.78;523815;28;909;-68
2024/01/17 00:48:34;;;;;;;21.87;14.90;;;;;;;-4.08;72.50;93352.28;523794;28;805;-67
2024/01/17 00:48:49;;;;;;;21.80;15.27;;;;;;;-4.05;72.30;93351.38;523905;28;778;-68
2024/01/17 00:49:04;;;;;;;20.90;15.33;;;;;;;-4.02;72.13;93350.44;523882;28;874;-68
2024/01/17 00:49:20;;;;;;;24.93;16.67;;;;;;;-3.97;72.59;93352.50;523853;28;885;-68
2024/01/17 00:49:38;;;;;;;25.05;16.77;;;;;;;-3.94;72.35;93351.59;523852;28;814;-68
2024/01/17 00:49:54;;;;;;;21.17;14.27;;;;;;;-3.90;72.23;93354.88;523814;28;960;-68
2024/01/17 00:50:10;;;;;;;20.73;13.03;;;;;;;-3.90;72.18;93354.88;523932;28;742;-68
2024/01/17 00:50:25;;;;;;;20.75;13.02;;;;;;;-3.88;72.37;93355.16;523906;28;841;-68
2024/01/17 00:50:41;;;;;;;19.13;12.80;;;;;;;-3.86;71.80;93350.06;523896;28;809;-68
2024/01/17 00:50:56;;;;;;;18.10;13.00;;;;;;;-3.85;71.99;93354.22;523925;28;778;-68
2024/01/17 00:51:23;;;;;;;18.13;12.33;;;;;;;-3.81;72.09;93346.00;523823;28;1127;-68
2024/01/17 00:51:38;;;;;;;20.75;12.40;;;;;;;-3.80;72.31;93348.22;523846;28;850;-68
2024/01/17 00:51:54;;;;;;;18.38;11.75;;;;;;;-3.77;71.78;93344.63;523914;28;802;-68
2024/01/17 00:52:09;;;;;;;17.97;11.77;;;;;;;-3.76;72.08;93343.38;523881;28;873;-68
2024/01/17 00:52:25;;;;;;;18.13;11.70;;;;;;;-3.74;71.81;93337.53;523812;28;774;-68
2024/01/17 00:52:40;;;;;;;17.20;10.77;;;;;;;-3.73;71.24;93342.47;523789;28;912;-68
2024/01/17 00:52:56;;;;;;;16.40;10.85;;;;;;;-3.69;71.60;93339.59;523884;28;869;-68
2024/01/17 00:53:11;;;;;;;17.93;11.23;;;;;;;-3.68;71.26;93347.22;523783;28;865;-68
2024/01/17 00:53:27;;;;;;;19.13;11.55;;;;;;;-3.68;70.91;93344.53;523593;28;1044;-68
2024/01/17 00:53:42;;;;;;;16.63;10.83;;;;;;;-3.67;71.34;93348.72;523810;28;774;-68
2024/01/17 00:53:58;;;;;;;11.98;9.32;;;;;;;-3.66;70.87;93344.09;523778;28;841;-68
2024/01/17 00:54:13;;;;;;;13.33;9.73;;;;;;;-3.65;71.02;93337.47;523842;28;900;-68
2024/01/17 00:54:28;;;;;;;14.37;9.90;;;;;;;-3.65;71.02;93349.00;523922;28;782;-68
2024/01/17 00:54:44;;;;;;;13.57;9.73;;;;;;;-3.64;70.75;93347.06;523902;28;857;-68
2024/01/17 00:54:59;;;;;;;14.23;10.20;;;;;;;-3.65;70.70;93346.31;523891;28;798;-68
2024/01/17 00:55:15;;;;;;;14.85;10.27;;;;;;;-3.64;70.35;93347.81;523808;28;882;-68
2024/01/17 00:55:30;;;;;;;14.63;10.27;;;;;;;-3.64;70.46;93347.06;523890;28;829;-68
2024/01/17 00:55:46;;;;;;;13.93;10.07;;;;;;;-3.66;70.33;93338.69;523933;28;869;-68
2024/01/17 00:56:01;;;;;;;14.30;10.33;;;;;;;-3.67;69.63;93340.63;523925;28;817;-68
2024/01/17 00:56:17;;;;;;;13.57;10.05;;;;;;;-3.68;69.86;93335.72;523839;28;794;-68
2024/01/17 00:56:34;;;;;;;12.90;9.50;;;;;;;-3.69;70.27;93339.59;523945;28;762;-68
2024/01/17 00:56:49;;;;;;;13.02;9.77;;;;;;;-3.68;69.63;93333.72;523834;28;936;-68
2024/01/17 00:57:05;;;;;;;12.55;9.57;;;;;;;-3.66;70.23;93333.28;523944;28;908;-68
2024/01/17 00:57:20;;;;;;;13.07;9.07;;;;;;;-3.69;69.72;93326.88;523853;28;770;-68
2024/01/17 00:57:35;;;;;;;12.98;8.93;;;;;;;-3.72;69.86;93333.16;523820;28;1993;-68
2024/01/17 00:57:51;;;;;;;11.53;8.90;;;;;;;-3.89;69.66;93327.44;523874;28;814;-68
2024/01/17 00:58:06;;;;;;;12.63;9.23;;;;;;;-3.98;69.99;93340.22;523759;28;763;-68
2024/01/17 00:58:22;;;;;;;12.85;9.20;;;;;;;-4.07;70.92;93337.59;523842;28;892;-68
2024/01/17 00:58:37;;;;;;;11.80;8.70;;;;;;;-4.15;70.79;93342.56;523797;28;1100;-68
2024/01/17 00:58:52;;;;;;;12.48;9.15;;;;;;;-4.20;70.61;93334.38;523944;28;829;-68
2024/01/17 00:59:08;;;;;;;12.67;9.40;;;;;;;-4.21;70.43;93335.56;523870;28;810;-68
2024/01/17 00:59:24;;;;;;;13.00;8.82;;;;;;;-4.16;70.78;93337.66;523859;28;888;-68
2024/01/17 00:59:39;;;;;;;13.13;8.80;;;;;;;-4.17;71.33;93333.44;523533;28;2440;-68
2024/01/17 00:59:55;;;;;;;13.17;9.13;;;;;;;-4.15;71.27;93333.72;523712;28;778;-68
2024/01/17 01:00:13;;;;;;;12.23;8.65;;;;;;;-4.10;71.00;93336.56;523725;28;959;-68
2024/01/17 01:00:28;;;;;;;11.25;8.32;;;;;;;-4.05;70.82;93335.19;523748;28;818;-68
2024/01/17 01:00:44;;;;;;;12.90;9.00;;;;;;;-4.01;71.14;93341.16;523729;28;829;-68
2024/01/17 01:00:59;;;;;;;13.02;9.65;;;;;;;-3.99;70.70;93334.09;523661;28;771;-68
2024/01/17 01:01:15;;;;;;;13.27;9.40;;;;;;;-3.96;70.99;93337.81;523733;28;849;-69
2024/01/17 01:01:30;;;;;;;13.20;9.10;;;;;;;-3.95;71.11;93337.38;523801;28;854;-69
2024/01/17 01:01:46;;;;;;;12.07;8.97;;;;;;;-3.94;70.83;93330.00;523897;28;822;-69
2024/01/17 01:02:03;;;;;;;12.40;9.52;;;;;;;-3.93;70.71;93329.56;523919;28;920;-69
2024/01/17 01:02:18;;;;;;;12.88;9.45;;;;;;;-3.91;70.72;93326.41;523752;28;932;-68
2024/01/17 01:02:34;;;;;;;14.90;10.13;;;;;;;-3.91;70.89;93331.81;523844;28;938;-68
2024/01/17 01:02:52;;;;;;;15.18;11.02;;;;;;;-3.90;70.93;93328.63;523898;28;763;-68
2024/01/17 01:03:08;;;;;;;15.65;11.05;;;;;;;-3.88;70.50;93328.19;523734;28;976;-68
2024/01/17 01:03:23;;;;;;;16.33;11.05;;;;;;;-3.86;70.86;93323.09;523840;28;845;-68
2024/01/17 01:03:39;;;;;;;17.77;11.33;;;;;;;-3.84;70.39;93334.16;523727;28;1120;-68
2024/01/17 01:03:54;;;;;;;18.25;11.20;;;;;;;-3.81;70.79;93333.22;523865;28;778;-68
2024/01/17 01:04:10;;;;;;;16.50;10.60;;;;;;;-3.78;70.83;93332.31;523882;28;833;-68
2024/01/17 01:04:25;;;;;;;14.73;9.80;;;;;;;-3.76;70.22;93324.50;523889;28;818;-68
2024/01/17 01:04:40;;;;;;;15.20;9.50;;;;;;;-3.74;70.82;93332.88;525584;28;1286;-68
2024/01/17 01:04:56;;;;;;;14.05;9.73;;;;;;;-3.72;70.61;93322.38;525919;28;829;-68
2024/01/17 01:05:11;;;;;;;13.27;10.10;;;;;;;-3.69;70.21;93329.56;525950;28;904;-68
2024/01/17 01:05:27;;;;;;;14.43;10.38;;;;;;;-3.66;70.36;93330.59;525858;28;790;-68
2024/01/17 01:05:43;;;;;;;14.80;10.20;;;;;;;-3.90;69.86;93300.94;525961;28;932;-68
2024/01/17 01:05:58;;;;;;;14.23;9.97;;;;;;;-3.62;70.00;93331.16;525795;28;1427;-68
2024/01/17 01:06:14;;;;;;;16.10;11.00;;;;;;;-3.63;69.60;93333.09;526039;28;761;-68
2024/01/17 01:06:29;;;;;;;21.75;14.07;;;;;;;-3.62;70.26;93331.91;525856;28;928;-69
2024/01/17 01:06:44;;;;;;;22.77;15.23;;;;;;;-3.60;69.81;93334.91;525965;28;872;-68
2024/01/17 01:07:00;;;;;;;22.50;14.80;;;;;;;-3.60;70.03;93326.06;525921;28;921;-68
2024/01/17 01:07:15;;;;;;;21.67;14.83;;;;;;;-3.59;69.56;93330.97;526000;28;758;-68
2024/01/17 01:07:31;;;;;;;21.75;14.48;;;;;;;-3.59;69.92;93336.38;525924;28;1240;-68
2024/01/17 01:07:51;;;;;;;25.73;15.00;;;;;;;-3.60;69.65;93334.91;525923;28;770;-68
2024/01/17 01:08:06;;;;;;;27.83;16.88;;;;;;;-3.60;69.40;93332.19;525887;28;877;-68
2024/01/17 01:08:21;;;;;;;27.37;17.53;;;;;;;-3.62;69.80;93333.88;525941;28;835;-68
2024/01/17 01:08:37;;;;;;;27.52;17.77;;;;;;;-3.61;69.37;93332.63;525926;28;856;-68
2024/01/17 01:08:52;;;;;;;29.37;17.97;;;;;;;-3.60;69.85;93334.16;525955;28;880;-68
2024/01/17 01:09:09;;;;;;;29.30;18.08;;;;;;;-3.62;69.59;93329.22;525865;28;778;-68
2024/01/17 01:09:25;;;;;;;27.33;18.13;;;;;;;-3.62;69.59;93329.22;525898;28;893;-68
2024/01/17 01:09:40;;;;;;;26.93;18.77;;;;;;;-3.64;70.04;93333.56;525942;28;782;-68
2024/01/17 01:09:56;;;;;;;26.10;17.75;;;;;;;-3.72;69.96;93327.78;525968;28;860;-68
2024/01/17 01:10:11;;;;;;;27.50;16.63;;;;;;;-3.69;69.57;93334.22;525970;28;788;-68
2024/01/17 01:10:27;;;;;;;29.90;17.10;;;;;;;-3.75;69.83;93331.41;525798;28;841;-68
2024/01/17 01:10:42;;;;;;;27.30;16.87;;;;;;;-3.84;69.93;93331.47;525886;28;987;-68
2024/01/17 01:10:58;;;;;;;29.33;17.92;;;;;;;-3.93;70.27;93336.91;525933;28;821;-68
2024/01/17 01:11:13;;;;;;;30.03;18.40;;;;;;;-4.04;70.83;93334.72;525974;28;805;-68
2024/01/17 01:11:30;;;;;;;26.77;17.03;;;;;;;-4.06;71.26;93331.75;525922;28;876;-68
2024/01/17 01:11:45;;;;;;;25.33;16.38;;;;;;;-4.06;71.20;93331.00;525957;28;891;-68
2024/01/17 01:12:01;;;;;;;26.13;16.65;;;;;;;-4.05;71.35;93327.09;525882;28;825;-68
2024/01/17 01:12:16;;;;;;;25.30;16.47;;;;;;;-4.03;71.06;93330.09;525927;28;864;-68
2024/01/17 01:12:32;;;;;;;25.25;15.88;;;;;;;-4.01;71.13;93327.69;525944;28;742;-68
2024/01/17 01:12:48;;;;;;;26.27;15.82;;;;;;;-3.97;71.59;93326.31;525955;28;947;-68
2024/01/17 01:13:03;;;;;;;24.70;15.10;;;;;;;-3.97;71.68;93326.31;525991;28;762;-68
2024/01/17 01:13:18;;;;;;;23.40;14.63;;;;;;;-4.00;71.67;93332.59;525760;28;834;-68
2024/01/17 01:13:34;;;;;;;25.67;15.50;;;;;;;-4.04;72.02;93331.28;525931;28;943;-68
2024/01/17 01:13:49;;;;;;;23.63;14.32;;;;;;;-4.11;71.58;93337.00;525949;28;853;-68
2024/01/17 01:14:05;;;;;;;21.37;14.07;;;;;;;-4.15;71.91;93334.47;525988;28;888;-68
2024/01/17 01:14:20;;;;;;;23.58;15.10;;;;;;;-4.14;72.06;93332.53;525914;28;998;-68
2024/01/17 01:14:36;;;;;;;23.27;14.70;;;;;;;-4.11;72.01;93331.59;525935;28;805;-68
2024/01/17 01:14:51;;;;;;;24.02;14.77;;;;;;;-4.08;72.26;93336.09;525865;28;821;-68
2024/01/17 01:15:08;;;;;;;23.73;14.63;;;;;;;-4.04;72.19;93333.97;525982;28;774;-68